Plush, Oregon
Current Conditions -  °F | °C
As of 3:15 AM on Friday 19 Dec 2014 (Local Time) from KLKV Reporting Station
Overcast Overcast  
Wind Chill: 27°   Ceiling: 3300
Heat Index: 36°   Visibility: 10mi
Dew Point: 30°   Wind: 13mph
Humidity: 81%   Direction: 170°S
Pressure: 30.01"   Gusts: NA
Location:  42.41°N, 119.91°W
Report Text: KLKV 191115Z 17011KT 10SM BKN033 BKN060 OVC070 02/M01 A3001 RMK AO1
Loading
Personal Weather Stations






























Interactive Weather Map New forecast layout! Learn more

10-Day Weather Forecast

Advertisements
Track Severe Weather on mobile